createdAt,value
2022-12-02T00:00:29.352Z,101055.03
2022-12-02T00:01:53.621Z,101051.63
2022-12-02T00:03:19.158Z,101046.31
2022-12-02T00:04:42.442Z,101048.13
2022-12-02T00:06:14.953Z,101041.88
2022-12-02T00:07:38.664Z,101040.94
2022-12-02T00:09:12.811Z,101042.75
2022-12-02T00:10:37.789Z,101048.06
2022-12-02T00:11:59.443Z,101048.06
2022-12-02T00:13:25.402Z,101046.25
2022-12-02T00:14:46.631Z,101047.72
2022-12-02T00:16:17.961Z,101038.81
2022-12-02T00:17:39.110Z,101043.16
2022-12-02T00:19:03.937Z,101038.69
2022-12-02T00:20:33.825Z,101035.13
2022-12-02T00:21:56.328Z,101044.69
2022-12-02T00:23:19.625Z,101040.13
2022-12-02T00:24:41.786Z,101031.19
2022-12-02T00:26:08.904Z,101040.88
2022-12-02T00:27:30.957Z,101038.94
2022-12-02T00:29:05.549Z,101031.84
2022-12-02T00:30:31.317Z,101038.84
2022-12-02T00:31:53.251Z,101028.25
2022-12-02T00:33:15.852Z,101036.13
2022-12-02T00:34:38.494Z,101036.94
2022-12-02T00:36:02.728Z,101041.41
2022-12-02T00:37:24.957Z,101040.53
2022-12-02T00:38:48.103Z,101039.81
2022-12-02T00:40:11.503Z,101029.28
2022-12-02T00:41:41.149Z,101039.16
2022-12-02T00:43:21.122Z,101037.47
2022-12-02T00:45:02.131Z,101037.78
2022-12-02T00:46:35.630Z,101037.78
2022-12-02T00:47:58.270Z,101043.16
2022-12-02T00:49:20.584Z,101016.59
2022-12-02T00:50:41.622Z,101032.00
2022-12-02T00:52:05.716Z,101035.72
2022-12-02T00:53:29.511Z,101029.56
2022-12-02T00:55:10.429Z,101023.72
2022-12-02T00:56:32.115Z,101034.31
2022-12-02T00:57:54.201Z,101025.50
2022-12-02T00:59:18.695Z,101038.97
2022-12-02T01:00:42.384Z,101033.66
2022-12-02T01:02:04.819Z,101041.63
2022-12-02T01:03:26.235Z,101033.78
2022-12-02T01:04:48.818Z,101033.78
2022-12-02T01:06:12.667Z,101029.41
2022-12-02T01:07:34.976Z,101031.13
2022-12-02T01:08:56.110Z,101030.16
2022-12-02T01:10:18.665Z,101022.31
2022-12-02T01:11:42.556Z,101031.97
2022-12-02T01:13:05.223Z,101024.84
2022-12-02T01:14:27.455Z,101022.19
2022-12-02T01:15:49.750Z,101029.41
2022-12-02T01:17:12.179Z,101028.47
2022-12-02T01:18:33.316Z,101022.41
2022-12-02T01:19:57.839Z,101029.41
2022-12-02T01:21:19.849Z,101026.88
2022-12-02T01:22:42.164Z,101021.66
2022-12-02T01:24:06.775Z,101028.00
2022-12-02T01:25:28.451Z,101024.72
2022-12-02T01:26:50.754Z,101028.31
2022-12-02T01:28:11.896Z,101019.50
2022-12-02T01:29:36.137Z,101023.97
2022-12-02T01:30:58.490Z,101031.91
2022-12-02T01:32:21.130Z,101033.81
2022-12-02T01:33:45.380Z,101024.03
2022-12-02T01:35:09.574Z,101028.59
2022-12-02T01:36:34.161Z,101017.91
2022-12-02T01:37:55.201Z,101026.69
2022-12-02T01:39:17.077Z,101025.75
2022-12-02T01:40:37.983Z,101027.75
2022-12-02T01:42:00.792Z,101021.59
2022-12-02T01:43:21.790Z,101020.63
2022-12-02T01:44:45.676Z,101016.22
2022-12-02T01:46:11.595Z,101023.19
2022-12-02T01:47:33.819Z,101020.56
2022-12-02T01:48:55.950Z,101015.25
2022-12-02T01:50:18.337Z,101020.34
2022-12-02T01:51:41.664Z,101010.69
2022-12-02T01:53:02.790Z,101020.34
2022-12-02T01:54:28.353Z,101015.91
2022-12-02T01:55:51.299Z,101018.56
2022-12-02T01:57:17.974Z,101008.81
2022-12-02T01:58:40.562Z,101007.06
2022-12-02T02:00:02.060Z,101018.44
2022-12-02T02:01:38.191Z,101012.38
2022-12-02T02:03:02.107Z,101009.63
2022-12-02T02:04:24.771Z,101012.09
2022-12-02T02:05:46.545Z,101005.09
2022-12-02T02:07:10.111Z,101017.31
2022-12-02T02:08:34.241Z,101009.22
2022-12-02T02:10:01.876Z,101011.03
2022-12-02T02:11:27.934Z,101012.94
2022-12-02T02:12:54.210Z,101011.03
2022-12-02T02:14:16.058Z,101012.75
2022-12-02T02:15:40.292Z,101011.03
2022-12-02T02:17:03.094Z,101012.84
2022-12-02T02:18:26.344Z,101003.19
2022-12-02T02:19:47.637Z,101014.75
2022-12-02T02:21:12.400Z,101003.28
2022-12-02T02:22:44.353Z,101005.19
2022-12-02T02:24:07.658Z,100994.78
2022-12-02T02:25:34.826Z,101004.44
2022-12-02T02:26:55.894Z,101003.66
2022-12-02T02:28:19.933Z,101009.84
2022-12-02T02:29:42.341Z,101009.09
2022-12-02T02:31:07.567Z,101002.06
2022-12-02T02:32:34.202Z,101007.50
2022-12-02T02:33:56.345Z,101012.69
2022-12-02T02:35:18.772Z,101015.31
2022-12-02T02:36:41.175Z,101011.75
2022-12-02T02:38:02.180Z,101017.13
2022-12-02T02:39:25.957Z,101017.06
2022-12-02T02:40:49.126Z,101012.50
2022-12-02T02:42:11.935Z,101014.19
2022-12-02T02:43:32.983Z,101015.16
2022-12-02T02:44:55.878Z,101015.91
2022-12-02T02:46:18.073Z,101012.38
2022-12-02T02:47:40.593Z,101006.31
2022-12-02T02:49:05.065Z,101014.09
2022-12-02T02:50:29.687Z,101007.97
2022-12-02T02:51:52.601Z,101015.16
2022-12-02T02:53:16.241Z,101016.84
2022-12-02T02:54:40.172Z,101018.66
2022-12-02T02:56:04.226Z,101019.69
2022-12-02T02:57:28.583Z,101013.44
2022-12-02T02:58:50.894Z,101019.59
2022-12-02T03:00:19.257Z,101008.97
2022-12-02T03:01:44.087Z,101011.44
2022-12-02T03:03:06.068Z,100996.38
2022-12-02T03:04:29.137Z,101004.44
2022-12-02T03:05:54.287Z,101006.22
2022-12-02T03:07:17.232Z,101013.25
2022-12-02T03:08:41.390Z,101003.78
2022-12-02T03:10:07.083Z,101003.03
2022-12-02T03:11:29.751Z,101007.50
2022-12-02T03:12:54.169Z,100999.63
2022-12-02T03:14:20.696Z,101003.31
2022-12-02T03:15:45.308Z,100999.91
2022-12-02T03:17:12.177Z,101006.19
2022-12-02T03:18:33.872Z,101002.69
2022-12-02T03:19:58.211Z,101000.97
2022-12-02T03:21:20.291Z,101002.69
2022-12-02T03:22:42.263Z,100997.47
2022-12-02T03:24:05.423Z,101005.34
2022-12-02T03:25:29.689Z,100999.19
2022-12-02T03:26:54.307Z,101002.78
2022-12-02T03:28:15.739Z,100996.63
2022-12-02T03:29:40.105Z,100996.72
2022-12-02T03:31:03.838Z,100995.88
2022-12-02T03:32:29.185Z,100994.06
2022-12-02T03:33:51.352Z,100982.69
2022-12-02T03:35:14.266Z,100982.81
2022-12-02T03:36:39.424Z,100980.03
2022-12-02T03:38:07.466Z,100988.13
2022-12-02T03:39:28.401Z,100980.16
2022-12-02T03:40:52.250Z,100984.63
2022-12-02T03:42:13.425Z,100982.81
2022-12-02T03:43:35.911Z,100979.19
2022-12-02T03:44:57.303Z,100980.91
2022-12-02T03:46:19.372Z,100973.91
2022-12-02T03:47:41.150Z,100963.59
2022-12-02T03:49:05.996Z,100962.66
2022-12-02T03:50:29.535Z,100969.84
2022-12-02T03:51:51.551Z,100965.50
2022-12-02T03:53:14.232Z,100968.16
2022-12-02T03:54:35.289Z,100957.72
2022-12-02T03:55:59.268Z,100960.38
2022-12-02T03:57:21.218Z,100969.09
2022-12-02T03:58:49.180Z,100956.81
2022-12-02T04:00:16.647Z,100960.28
2022-12-02T04:01:37.874Z,100968.25
2022-12-02T04:03:00.180Z,100956.03
2022-12-02T04:04:21.407Z,100958.78
2022-12-02T04:05:49.299Z,100962.41
2022-12-02T04:07:12.064Z,100951.03
2022-12-02T04:08:33.139Z,100951.78
2022-12-02T04:09:59.282Z,100948.28
2022-12-02T04:11:22.955Z,100949.06
2022-12-02T04:12:45.040Z,100940.22
2022-12-02T04:14:07.299Z,100940.13
2022-12-02T04:15:28.385Z,100945.44
2022-12-02T04:16:50.258Z,100936.72
2022-12-02T04:18:14.713Z,100954.34
2022-12-02T04:19:35.693Z,100957.72
2022-12-02T04:20:57.902Z,100953.31
2022-12-02T04:22:18.449Z,100950.66
2022-12-02T04:23:40.851Z,100945.44
2022-12-02T04:25:04.274Z,100945.34
2022-12-02T04:26:30.430Z,100957.72
2022-12-02T04:27:51.899Z,100943.84
2022-12-02T04:29:14.032Z,100955.19
2022-12-02T04:30:34.890Z,100951.69
2022-12-02T04:31:56.899Z,100949.06
2022-12-02T04:33:18.224Z,100956.13
2022-12-02T04:34:40.558Z,100948.19
2022-12-02T04:36:01.557Z,100948.19
2022-12-02T04:37:23.345Z,100949.06
2022-12-02T04:38:44.633Z,100945.66
2022-12-02T04:40:08.383Z,100949.97
2022-12-02T04:41:31.754Z,100947.25
2022-12-02T04:42:53.675Z,100947.13
2022-12-02T04:44:18.129Z,100945.53
2022-12-02T04:45:40.793Z,100958.69
2022-12-02T04:47:01.991Z,100957.94
2022-12-02T04:48:24.386Z,100952.63
2022-12-02T04:49:46.732Z,100959.75
2022-12-02T04:51:07.825Z,100957.09
2022-12-02T04:52:29.635Z,100956.25
2022-12-02T04:53:51.905Z,100960.72
2022-12-02T04:55:14.379Z,100962.59
2022-12-02T04:56:37.645Z,100952.94
2022-12-02T04:57:58.535Z,100949.53
2022-12-02T04:59:20.539Z,100954.94
2022-12-02T05:00:43.223Z,100949.72
2022-12-02T05:02:04.216Z,100945.38
2022-12-02T05:03:26.365Z,100945.47
2022-12-02T05:04:47.501Z,100949.94
2022-12-02T05:06:09.703Z,100952.59
2022-12-02T05:07:31.706Z,100951.75
2022-12-02T05:08:52.725Z,100952.66
2022-12-02T05:10:14.771Z,100943.03
2022-12-02T05:11:38.418Z,100950.91
2022-12-02T05:13:00.333Z,100945.59
2022-12-02T05:14:22.473Z,100947.28
2022-12-02T05:15:44.655Z,100946.44
2022-12-02T05:17:05.848Z,100951.75
2022-12-02T05:18:27.905Z,100942.94
2022-12-02T05:19:48.937Z,100945.47
2022-12-02T05:21:10.811Z,100949.72
2022-12-02T05:22:35.808Z,100944.34
2022-12-02T05:23:57.954Z,100949.63
2022-12-02T05:25:19.131Z,100949.53
2022-12-02T05:26:42.698Z,100952.16
2022-12-02T05:28:05.106Z,100946.88
2022-12-02T05:29:25.929Z,100942.63
2022-12-02T05:30:48.229Z,100949.63
2022-12-02T05:32:10.419Z,100949.63
2022-12-02T05:33:32.932Z,100944.13
2022-12-02T05:34:54.942Z,100941.47
2022-12-02T05:36:17.098Z,100940.44
2022-12-02T05:37:39.842Z,100951.78
2022-12-02T05:39:02.063Z,100937.78
2022-12-02T05:40:25.240Z,100942.88
2022-12-02T05:41:50.335Z,100946.41
2022-12-02T05:43:17.958Z,100947.13
2022-12-02T05:44:40.746Z,100950.53
2022-12-02T05:46:01.686Z,100945.22
2022-12-02T05:47:24.791Z,100947.03
2022-12-02T05:48:48.278Z,100951.38
2022-12-02T05:50:13.984Z,100949.59
2022-12-02T05:51:34.927Z,100952.34
2022-12-02T05:52:56.996Z,100950.53
2022-12-02T05:54:20.642Z,100957.44
2022-12-02T05:55:42.838Z,100952.13
2022-12-02T05:57:08.826Z,100948.84
2022-12-02T05:58:32.553Z,100953.94
2022-12-02T05:59:59.004Z,100955.75
2022-12-02T06:01:24.283Z,100966.34
2022-12-02T06:02:47.944Z,100961.06
2022-12-02T06:04:18.645Z,100961.97
2022-12-02T06:05:43.198Z,100955.00
2022-12-02T06:07:12.866Z,100961.97
2022-12-02T06:08:39.959Z,100967.28
2022-12-02T06:10:01.056Z,100966.44
2022-12-02T06:11:30.052Z,100962.84
2022-12-02T06:12:55.861Z,100963.72
2022-12-02T06:14:20.826Z,100966.25
2022-12-02T06:15:43.710Z,100964.56
2022-12-02T06:17:15.184Z,100962.84
2022-12-02T06:18:37.919Z,100967.13
2022-12-02T06:19:58.991Z,100963.72
2022-12-02T06:21:24.439Z,100971.66
2022-12-02T06:22:46.679Z,100971.88
2022-12-02T06:24:12.007Z,100977.91
2022-12-02T06:25:34.486Z,100967.28
2022-12-02T06:26:58.390Z,100967.28
2022-12-02T06:28:27.031Z,100966.44
2022-12-02T06:29:52.420Z,100977.81
2022-12-02T06:31:17.847Z,100975.25
2022-12-02T06:32:43.465Z,100977.06
2022-12-02T06:34:21.991Z,100977.91
2022-12-02T06:35:43.185Z,100978.84
2022-12-02T06:37:14.964Z,100978.00
2022-12-02T06:38:43.996Z,100978.84
2022-12-02T06:40:28.874Z,100974.59
2022-12-02T06:41:51.517Z,100979.81
2022-12-02T06:43:19.383Z,100985.28
2022-12-02T06:45:01.954Z,100985.41
2022-12-02T06:46:24.034Z,100984.75
2022-12-02T06:48:08.769Z,100985.59
2022-12-02T06:49:38.064Z,100983.81
2022-12-02T06:51:09.031Z,100985.59
2022-12-02T06:52:29.951Z,100985.72
2022-12-02T06:53:52.212Z,100987.41
2022-12-02T06:55:29.151Z,100993.66
2022-12-02T06:56:52.703Z,100993.66
2022-12-02T06:58:27.077Z,100992.81
2022-12-02T06:59:53.242Z,100999.81
2022-12-02T07:01:41.316Z,100998.00
2022-12-02T07:03:02.502Z,100998.84
2022-12-02T07:04:32.472Z,101000.56
2022-12-02T07:05:54.308Z,100998.66
2022-12-02T07:07:20.660Z,100996.03
2022-12-02T07:08:42.258Z,101000.34
2022-12-02T07:10:08.323Z,100994.97
2022-12-02T07:11:54.478Z,100998.56
2022-12-02T07:13:21.206Z,100995.91
2022-12-02T07:14:48.036Z,100994.13
2022-12-02T07:16:33.641Z,100995.81
2022-12-02T07:18:02.348Z,100994.84
2022-12-02T07:19:27.302Z,100990.50
2022-12-02T07:20:50.879Z,100993.91
2022-12-02T07:22:17.063Z,100995.63
2022-12-02T07:23:41.176Z,100984.06
2022-12-02T07:25:31.062Z,100985.75
2022-12-02T07:26:53.332Z,100995.53
2022-12-02T07:28:27.677Z,100990.31
2022-12-02T07:29:52.850Z,100990.31
2022-12-02T07:31:19.614Z,100995.53
2022-12-02T07:32:43.374Z,100988.50
2022-12-02T07:34:05.113Z,100997.22
2022-12-02T07:35:27.929Z,101000.72
2022-12-02T07:36:49.671Z,101000.91
2022-12-02T07:38:11.835Z,100997.34
2022-12-02T07:39:36.578Z,100991.16
2022-12-02T07:40:58.629Z,101002.81
2022-12-02T07:42:20.971Z,100994.97
2022-12-02T07:43:43.219Z,100998.56
2022-12-02T07:45:05.879Z,100998.66
2022-12-02T07:46:28.245Z,100999.59
2022-12-02T07:47:51.504Z,100997.06
2022-12-02T07:49:13.492Z,100992.63
2022-12-02T07:50:38.019Z,100995.56
2022-12-02T07:52:00.371Z,100987.59
2022-12-02T07:53:22.445Z,100993.88
2022-12-02T07:54:44.117Z,100995.84
2022-12-02T07:56:06.434Z,100997.56
2022-12-02T07:57:29.358Z,100997.44
2022-12-02T07:59:11.783Z,100994.78
2022-12-02T08:00:35.856Z,100993.94
2022-12-02T08:01:58.475Z,100998.28
2022-12-02T08:03:22.224Z,100988.56
2022-12-02T08:04:44.402Z,100998.19
2022-12-02T08:06:07.012Z,100998.00
2022-12-02T08:07:29.362Z,100993.66
2022-12-02T08:08:51.370Z,100995.25
2022-12-02T08:10:13.758Z,100995.25
2022-12-02T08:11:36.067Z,100992.63
2022-12-02T08:12:57.808Z,100999.72
2022-12-02T08:14:19.708Z,100993.38
2022-12-02T08:15:42.009Z,101000.28
2022-12-02T08:17:04.473Z,100993.91
2022-12-02T08:18:27.881Z,101000.91
2022-12-02T08:19:50.176Z,101000.81
2022-12-02T08:21:12.228Z,101002.53
2022-12-02T08:22:34.365Z,101001.59
2022-12-02T08:23:56.040Z,100996.28
2022-12-02T08:25:18.011Z,100998.19
2022-12-02T08:26:39.974Z,101005.16
2022-12-02T08:28:01.805Z,100999.09
2022-12-02T08:29:26.161Z,101000.06
2022-12-02T08:30:48.419Z,100991.47
2022-12-02T08:32:09.496Z,100991.66
2022-12-02T08:33:32.739Z,100998.75
2022-12-02T08:34:54.793Z,101001.50
2022-12-02T08:36:16.959Z,100998.84
2022-12-02T08:37:39.179Z,100997.44
2022-12-02T08:39:02.934Z,100994.59
2022-12-02T08:40:25.447Z,100995.47
2022-12-02T08:41:47.536Z,100979.28
2022-12-02T08:43:09.728Z,100987.50
2022-12-02T08:44:32.004Z,100997.06
2022-12-02T08:45:57.910Z,100991.75
2022-12-02T08:47:31.066Z,100993.44
2022-12-02T08:48:55.429Z,100991.66
2022-12-02T08:50:17.753Z,100980.97
2022-12-02T08:51:39.741Z,100980.97
2022-12-02T08:53:02.199Z,100990.50
2022-12-02T08:54:24.098Z,100981.72
2022-12-02T08:55:45.728Z,100984.44
2022-12-02T08:57:13.337Z,100982.56
2022-12-02T08:58:35.497Z,100979.16
2022-12-02T08:59:56.700Z,100979.16
2022-12-02T09:01:21.541Z,100984.56
2022-12-02T09:02:44.125Z,100985.28
2022-12-02T09:04:08.107Z,100988.81
2022-12-02T09:05:30.215Z,100990.59
2022-12-02T09:06:52.428Z,100991.56
2022-12-02T09:08:14.824Z,100995.19
2022-12-02T09:09:37.055Z,100990.72
2022-12-02T09:10:59.140Z,100986.34
2022-12-02T09:12:21.308Z,100986.25
2022-12-02T09:13:43.557Z,100996.88
2022-12-02T09:15:07.855Z,100994.31
2022-12-02T09:16:29.906Z,100989.88
2022-12-02T09:17:52.459Z,100992.63
2022-12-02T09:19:15.695Z,100991.66
2022-12-02T09:20:37.838Z,100997.91
2022-12-02T09:21:59.841Z,100996.19
2022-12-02T09:23:21.965Z,100998.75
2022-12-02T09:24:44.322Z,100990.03
2022-12-02T09:26:06.627Z,100992.53
2022-12-02T09:27:29.385Z,100995.25
2022-12-02T09:28:51.419Z,100996.66
2022-12-02T09:30:17.234Z,100998.56
2022-12-02T09:31:39.507Z,100992.53
2022-12-02T09:33:01.068Z,100990.81
2022-12-02T09:34:24.473Z,100998.75
2022-12-02T09:35:46.665Z,101001.41
2022-12-02T09:37:09.447Z,100998.84
2022-12-02T09:38:32.374Z,101011.38
2022-12-02T09:39:54.444Z,100993.09
2022-12-02T09:41:16.737Z,100993.31
2022-12-02T09:42:39.121Z,101000.50
2022-12-02T09:44:01.904Z,100991.88
2022-12-02T09:45:24.347Z,101002.59
2022-12-02T09:46:46.761Z,100993.97
2022-12-02T09:48:12.490Z,100997.47
2022-12-02T09:49:36.946Z,101000.22
2022-12-02T09:51:01.141Z,100998.50
2022-12-02T09:52:26.631Z,101000.31
2022-12-02T09:53:49.274Z,100996.81
2022-12-02T09:55:14.923Z,100994.25
2022-12-02T09:56:37.463Z,100995.22
2022-12-02T09:58:06.849Z,100988.31
2022-12-02T09:59:31.523Z,100989.34
2022-12-02T10:00:54.462Z,100993.88
2022-12-02T10:02:24.529Z,101003.53
2022-12-02T10:03:51.175Z,100991.25
2022-12-02T10:05:17.482Z,100993.81
2022-12-02T10:06:39.355Z,100995.41
2022-12-02T10:08:04.406Z,100987.47
2022-12-02T10:09:31.128Z,100986.63
2022-12-02T10:10:56.866Z,100988.31
2022-12-02T10:12:19.056Z,100995.28
2022-12-02T10:13:41.659Z,100984.81
2022-12-02T10:15:03.491Z,100983.97
2022-12-02T10:16:27.746Z,100977.78
2022-12-02T10:17:50.177Z,100975.34
2022-12-02T10:19:17.402Z,100981.47
2022-12-02T10:20:41.204Z,100979.78
2022-12-02T10:22:03.240Z,100979.13
2022-12-02T10:23:27.406Z,100978.19
2022-12-02T10:24:50.822Z,100972.03
2022-12-02T10:26:15.044Z,100974.69
2022-12-02T10:27:37.972Z,100974.50
2022-12-02T10:29:02.638Z,100975.53
2022-12-02T10:30:27.225Z,100974.69
2022-12-02T10:31:55.791Z,100972.69
2022-12-02T10:33:18.061Z,100986.78
2022-12-02T10:34:40.186Z,100973.75
2022-12-02T10:36:03.369Z,100975.75
2022-12-02T10:37:26.663Z,100970.53
2022-12-02T10:38:48.685Z,100962.78
2022-12-02T10:40:16.673Z,100977.84
2022-12-02T10:41:38.795Z,100971.84
2022-12-02T10:43:11.373Z,100971.00
2022-12-02T10:44:35.647Z,100964.88
2022-12-02T10:45:58.561Z,100971.84
2022-12-02T10:47:26.114Z,100967.41
2022-12-02T10:48:49.855Z,100964.75
2022-12-02T10:50:21.924Z,100959.56
2022-12-02T10:51:45.408Z,100969.88
2022-12-02T10:53:14.235Z,100965.63
2022-12-02T10:54:43.075Z,100964.88
2022-12-02T10:56:09.522Z,100962.31
2022-12-02T10:57:34.923Z,100967.59
2022-12-02T10:58:57.438Z,100965.91
2022-12-02T11:00:21.997Z,100963.34
2022-12-02T11:01:45.843Z,100970.44
2022-12-02T11:03:08.528Z,100968.72
2022-12-02T11:04:31.057Z,100966.28
2022-12-02T11:05:53.354Z,100958.59
2022-12-02T11:07:25.150Z,100954.19
2022-12-02T11:08:48.560Z,100951.81
2022-12-02T11:10:24.463Z,100973.78
2022-12-02T11:11:47.349Z,100964.94
2022-12-02T11:13:49.810Z,100961.47
2022-12-02T11:15:50.568Z,100966.94
2022-12-02T11:17:14.780Z,100959.75
2022-12-02T11:18:57.083Z,100965.81
2022-12-02T11:20:36.132Z,100969.31
2022-12-02T11:22:00.719Z,100969.22
2022-12-02T11:23:35.073Z,100946.88
2022-12-02T11:25:00.250Z,100949.94
2022-12-02T11:26:43.070Z,100951.22
2022-12-02T11:28:32.470Z,100955.41
2022-12-02T11:30:37.653Z,100955.97
2022-12-02T11:32:05.744Z,100958.31
2022-12-02T11:34:06.079Z,100958.97
2022-12-02T11:36:13.558Z,100954.34
2022-12-02T11:37:40.701Z,100956.72
2022-12-02T11:39:07.132Z,100959.16
2022-12-02T11:41:00.673Z,100955.38
2022-12-02T11:42:25.784Z,100958.66
2022-12-02T11:44:09.167Z,100962.06
2022-12-02T11:45:58.343Z,100954.88
2022-12-02T11:47:27.353Z,100956.56
2022-12-02T11:48:52.391Z,100955.72
2022-12-02T11:50:25.096Z,100956.56
2022-12-02T11:51:46.247Z,100959.91
2022-12-02T11:53:17.647Z,100957.97
2022-12-02T11:54:41.700Z,100949.09
2022-12-02T11:56:12.717Z,100959.56
2022-12-02T11:57:45.439Z,100957.03
2022-12-02T11:59:21.046Z,100951.81
2022-12-02T12:00:47.213Z,100948.31
2022-12-02T12:02:09.715Z,100959.91
2022-12-02T12:03:32.611Z,100955.53
2022-12-02T12:05:06.476Z,100950.44
2022-12-02T12:06:34.700Z,100950.44
2022-12-02T12:08:02.605Z,100953.06
2022-12-02T12:09:28.085Z,100948.63
2022-12-02T12:11:17.138Z,100948.69
2022-12-02T12:12:39.485Z,100942.47
2022-12-02T12:14:05.006Z,100946.06
2022-12-02T12:15:55.849Z,100942.56
2022-12-02T12:17:36.039Z,100948.91
2022-12-02T12:19:02.862Z,100950.63
2022-12-02T12:20:47.131Z,100954.13
2022-12-02T12:22:27.557Z,100940.19
2022-12-02T12:23:49.426Z,100944.44
2022-12-02T12:25:43.270Z,100942.84
2022-12-02T12:27:14.200Z,100938.72
2022-12-02T12:28:37.802Z,100943.25
2022-12-02T12:30:02.826Z,100940.81
2022-12-02T12:31:24.662Z,100935.50
2022-12-02T12:32:46.424Z,100929.53
2022-12-02T12:34:09.161Z,100937.41
2022-12-02T12:35:31.179Z,100940.91
2022-12-02T12:36:53.587Z,100935.59
2022-12-02T12:38:16.483Z,100931.13
2022-12-02T12:39:41.557Z,100932.84
2022-12-02T12:41:06.695Z,100937.28
2022-12-02T12:42:30.452Z,100935.50
2022-12-02T12:43:52.409Z,100934.56
2022-12-02T12:45:17.550Z,100936.16
2022-12-02T12:46:42.490Z,100932.56
2022-12-02T12:48:05.157Z,100927.91
2022-12-02T12:49:27.398Z,100934.81
2022-12-02T12:50:49.418Z,100925.91
2022-12-02T12:52:14.521Z,100913.16
2022-12-02T12:53:37.019Z,100930.56
2022-12-02T12:54:59.009Z,100925.56
2022-12-02T12:56:22.536Z,100920.38
2022-12-02T12:57:44.863Z,100927.56
2022-12-02T12:59:07.159Z,100927.56
2022-12-02T13:00:28.836Z,100923.94
2022-12-02T13:01:51.084Z,100930.09
2022-12-02T13:03:13.441Z,100922.16
2022-12-02T13:04:35.541Z,100928.31
2022-12-02T13:06:00.716Z,100928.13
2022-12-02T13:07:23.296Z,100934.25
2022-12-02T13:08:45.118Z,100935.09
2022-12-02T13:10:10.637Z,100934.19
2022-12-02T13:11:34.000Z,100936.81
2022-12-02T13:12:55.990Z,100930.56
2022-12-02T13:14:18.331Z,100938.50
2022-12-02T13:15:41.286Z,100926.22
2022-12-02T13:17:03.246Z,100933.22
2022-12-02T13:18:25.152Z,100943.16
2022-12-02T13:19:50.066Z,100939.75
2022-12-02T13:21:12.341Z,100939.09
2022-12-02T13:22:34.879Z,100937.59
2022-12-02T13:23:58.327Z,100936.09
2022-12-02T13:25:21.445Z,100936.16
2022-12-02T13:26:44.878Z,100936.28
2022-12-02T13:28:07.196Z,100939.88
2022-12-02T13:29:30.015Z,100940.81
2022-12-02T13:30:58.405Z,100938.19
2022-12-02T13:32:20.411Z,100937.22
2022-12-02T13:33:42.499Z,100938.19
2022-12-02T13:35:04.473Z,100936.66
2022-12-02T13:36:26.570Z,100939.41
2022-12-02T13:37:48.878Z,100941.19
2022-12-02T13:39:11.781Z,100938.66
2022-12-02T13:40:33.543Z,100941.59
2022-12-02T13:41:56.921Z,100947.16
2022-12-02T13:43:19.136Z,100936.69
2022-12-02T13:44:41.276Z,100938.66
2022-12-02T13:46:03.466Z,100933.56
2022-12-02T13:47:26.857Z,100942.63
2022-12-02T13:48:49.064Z,100939.34
2022-12-02T13:50:11.652Z,100941.97
2022-12-02T13:51:35.372Z,100942.06
2022-12-02T13:53:03.337Z,100945.66
2022-12-02T13:54:26.554Z,100943.31
2022-12-02T13:55:49.061Z,100943.19
2022-12-02T13:57:14.401Z,100940.53
2022-12-02T13:58:36.624Z,100941.50
2022-12-02T13:59:58.818Z,100949.53
2022-12-02T14:01:21.350Z,100947.75
2022-12-02T14:02:50.835Z,100945.19
2022-12-02T14:04:12.963Z,100951.44
2022-12-02T14:05:37.203Z,100947.06
2022-12-02T14:07:00.381Z,100942.06
2022-12-02T14:08:22.326Z,100941.97
2022-12-02T14:09:44.380Z,100949.06
2022-12-02T14:11:07.113Z,100945.56
2022-12-02T14:12:30.483Z,100948.13
2022-12-02T14:13:52.500Z,100950.69
2022-12-02T14:15:14.873Z,100947.91
2022-12-02T14:16:37.367Z,100951.31
2022-12-02T14:17:59.814Z,100947.00
2022-12-02T14:19:22.124Z,100951.31
2022-12-02T14:20:44.972Z,100951.25
2022-12-02T14:22:10.276Z,100950.28
2022-12-02T14:23:32.486Z,100950.41
2022-12-02T14:24:55.468Z,100951.25
2022-12-02T14:26:17.824Z,100951.25
2022-12-02T14:27:41.615Z,100949.53
2022-12-02T14:29:03.886Z,100954.09
2022-12-02T14:30:26.028Z,100950.56
2022-12-02T14:31:48.259Z,100944.44
2022-12-02T14:33:11.417Z,100951.53
2022-12-02T14:34:33.553Z,100950.75
2022-12-02T14:35:55.538Z,100954.16
2022-12-02T14:37:17.869Z,100955.00
2022-12-02T14:38:40.195Z,100961.16
2022-12-02T14:40:05.118Z,100944.44
2022-12-02T14:41:30.218Z,100948.78
2022-12-02T14:42:56.887Z,100954.16
2022-12-02T14:44:18.899Z,100945.47
2022-12-02T14:45:40.956Z,100957.84
2022-12-02T14:47:05.884Z,100945.16
2022-12-02T14:48:28.455Z,100957.38
2022-12-02T14:49:52.342Z,100953.88
2022-12-02T14:51:14.471Z,100960.22
2022-12-02T14:52:36.818Z,100961.16
2022-12-02T14:53:58.987Z,100954.25
2022-12-02T14:55:21.645Z,100948.97
2022-12-02T14:56:44.244Z,100954.06
2022-12-02T14:58:07.608Z,100962.84
2022-12-02T14:59:32.797Z,100959.16
2022-12-02T15:00:54.895Z,100947.66
2022-12-02T15:02:17.272Z,100961.63
2022-12-02T15:03:39.337Z,100956.25
2022-12-02T15:05:01.680Z,100957.94
2022-12-02T15:06:24.091Z,100955.84
2022-12-02T15:07:46.583Z,100962.03
2022-12-02T15:09:09.260Z,100956.53
2022-12-02T15:10:31.975Z,100953.91
2022-12-02T15:12:00.781Z,100958.16
2022-12-02T15:13:25.268Z,100960.72
2022-12-02T15:14:47.509Z,100957.19
2022-12-02T15:16:10.793Z,100964.00
2022-12-02T15:17:33.323Z,100958.72
2022-12-02T15:18:56.026Z,100964.78
2022-12-02T15:20:18.508Z,100961.94
2022-12-02T15:21:40.241Z,100961.09
2022-12-02T15:23:02.509Z,100955.69
2022-12-02T15:24:24.974Z,100963.63
2022-12-02T15:25:47.059Z,100960.13
2022-12-02T15:27:08.931Z,100957.59
2022-12-02T15:28:32.357Z,100965.53
2022-12-02T15:29:54.697Z,100955.88
2022-12-02T15:31:18.949Z,100954.25
2022-12-02T15:32:41.278Z,100951.72
2022-12-02T15:34:03.603Z,100958.44
2022-12-02T15:35:25.683Z,100962.00
2022-12-02T15:36:47.349Z,100962.13
2022-12-02T15:38:09.259Z,100956.00
2022-12-02T15:39:31.759Z,100947.84
2022-12-02T15:40:54.177Z,100958.81
2022-12-02T15:42:16.323Z,100962.22
2022-12-02T15:43:39.405Z,100960.78
2022-12-02T15:45:13.722Z,100959.06
2022-12-02T15:46:36.071Z,100964.38
2022-12-02T15:47:58.484Z,100967.13
2022-12-02T15:49:20.885Z,100961.84
2022-12-02T15:50:43.355Z,100963.53
2022-12-02T15:52:05.616Z,100960.03
2022-12-02T15:53:29.744Z,100953.53
2022-12-02T15:54:52.292Z,100976.75
2022-12-02T15:56:17.609Z,100970.53
2022-12-02T15:57:39.950Z,100971.38
2022-12-02T15:59:22.333Z,100972.22
2022-12-02T16:00:58.840Z,100965.34
2022-12-02T16:02:30.245Z,100979.13
2022-12-02T16:03:56.340Z,100954.16
2022-12-02T16:05:27.378Z,100967.69
2022-12-02T16:06:56.708Z,100966.00
2022-12-02T16:08:25.632Z,100966.75